Arlon, Belgium
Current Conditions -  °F | °C
As of 5:20 AM on Thursday 27 Nov 2014 (Local Time) from ELLX Reporting Station
Moderate Fog Moderate Fog  
Wind Chill: 38°   Ceiling: 100
Heat Index: 41°   Visibility: 0.37mi
Dew Point: 41°   Wind: 5mph
Humidity: 100%   Direction: 60°ENE
Pressure: 29.8"   Gusts: NA
Location:  49.68°N, 5.82°E
Report Text: ELLX 270420Z 06004KT 040V110 0600 R24/P1500VP1500N FG OVC001 05/05 Q1009 NOSIG
Loading
Personal Weather Stations






























Interactive Weather Map New forecast layout! Learn more

10-Day Weather Forecast

Advertisements
Track Severe Weather on mobile